sensor_id;sensor_type;location;lat;lon;timestamp;pressure;altitude;pressure_sealevel;temperature;humidity
21664;BME280;10993;52.510;13.456;2023-05-19T00:02:03;56301.63;;;-146.93;56.76
21664;BME280;10993;52.510;13.456;2023-05-19T00:07:09;56329.97;;;-146.93;56.48
21664;BME280;10993;52.510;13.456;2023-05-19T00:12:11;56283.41;;;-146.93;56.60
21664;BME280;10993;52.510;13.456;2023-05-19T00:17:12;56309.75;;;-146.93;56.51
21664;BME280;10993;52.510;13.456;2023-05-19T00:22:14;56317.84;;;-146.93;57.23
21664;BME280;10993;52.510;13.456;2023-05-19T00:27:15;56303.66;;;-146.93;57.18
21664;BME280;10993;52.510;13.456;2023-05-19T00:32:16;56291.53;;;-146.93;57.01
21664;BME280;10993;52.510;13.456;2023-05-19T00:37:18;56301.63;;;-146.93;57.25
21664;BME280;10993;52.510;13.456;2023-05-19T00:42:19;56281.41;;;-146.93;57.03
21664;BME280;10993;52.510;13.456;2023-05-19T00:47:20;56228.75;;;-146.93;57.52
21664;BME280;10993;52.510;13.456;2023-05-19T00:52:22;56291.53;;;-146.93;57.48
21664;BME280;10993;52.510;13.456;2023-05-19T00:57:22;56311.75;;;-146.93;58.00
21664;BME280;10993;52.510;13.456;2023-05-19T01:02:23;56313.78;;;-146.93;58.15
21664;BME280;10993;52.510;13.456;2023-05-19T01:07:24;56301.63;;;-146.93;58.11
21664;BME280;10993;52.510;13.456;2023-05-19T01:12:25;56277.34;;;-146.93;57.91
21664;BME280;10993;52.510;13.456;2023-05-19T01:17:32;56301.63;;;-146.93;58.05
21664;BME280;10993;52.510;13.456;2023-05-19T01:23:07;56317.84;;;-146.93;58.56
21664;BME280;10993;52.510;13.456;2023-05-19T01:28:33;56309.75;;;-146.93;58.74
21664;BME280;10993;52.510;13.456;2023-05-19T01:33:38;56283.41;;;-146.93;58.49
21664;BME280;10993;52.510;13.456;2023-05-19T01:38:41;56301.63;;;-146.93;58.68
21664;BME280;10993;52.510;13.456;2023-05-19T01:43:42;56249.00;;;-146.93;58.77
21664;BME280;10993;52.510;13.456;2023-05-19T01:48:45;56299.63;;;-146.93;59.00
21664;BME280;10993;52.510;13.456;2023-05-19T01:53:46;56291.53;;;-146.93;59.45
21664;BME280;10993;52.510;13.456;2023-05-19T01:58:50;56297.59;;;-146.93;59.46
21664;BME280;10993;52.510;13.456;2023-05-19T02:04:12;56224.72;;;-146.93;59.49
21664;BME280;10993;52.510;13.456;2023-05-19T02:09:22;56283.41;;;-146.93;59.74
21664;BME280;10993;52.510;13.456;2023-05-19T02:14:28;56297.59;;;-146.93;59.54
21664;BME280;10993;52.510;13.456;2023-05-19T02:19:32;56220.66;;;-146.93;59.69
21664;BME280;10993;52.510;13.456;2023-05-19T02:24:33;56293.53;;;-146.93;59.86
21664;BME280;10993;52.510;13.456;2023-05-19T02:29:33;56103.25;;;-146.93;59.72
21664;BME280;10993;52.510;13.456;2023-05-19T02:34:35;56297.59;;;-146.93;59.44
21664;BME280;10993;52.510;13.456;2023-05-19T02:39:35;56277.34;;;-146.93;59.08
21664;BME280;10993;52.510;13.456;2023-05-19T02:44:36;56267.22;;;-146.93;59.15
21664;BME280;10993;52.510;13.456;2023-05-19T02:49:38;56309.75;;;-146.93;58.65
21664;BME280;10993;52.510;13.456;2023-05-19T02:54:38;56281.41;;;-146.93;58.31
21664;BME280;10993;52.510;13.456;2023-05-19T02:59:38;56240.91;;;-146.93;57.94
21664;BME280;10993;52.510;13.456;2023-05-19T03:04:41;56325.94;;;-146.93;57.75
21664;BME280;10993;52.510;13.456;2023-05-19T03:09:42;56291.53;;;-146.93;57.96
21664;BME280;10993;52.510;13.456;2023-05-19T03:14:42;56222.69;;;-146.93;58.31
21664;BME280;10993;52.510;13.456;2023-05-19T03:19:44;56269.25;;;-146.93;58.48
21664;BME280;10993;52.510;13.456;2023-05-19T03:24:44;56329.97;;;-146.93;58.69
21664;BME280;10993;52.510;13.456;2023-05-19T03:29:45;57099.41;;;-146.93;58.04
21664;BME280;10993;52.510;13.456;2023-05-19T03:34:46;56277.34;;;-146.93;57.71
21664;BME280;10993;52.510;13.456;2023-05-19T03:39:46;56311.75;;;-146.93;57.59
21664;BME280;10993;52.510;13.456;2023-05-19T03:44:50;56105.25;;;-146.93;56.96
21664;BME280;10993;52.510;13.456;2023-05-19T03:49:51;56240.91;;;-146.93;56.42
21664;BME280;10993;52.510;13.456;2023-05-19T03:54:52;56317.84;;;-146.93;56.42
21664;BME280;10993;52.510;13.456;2023-05-19T03:59:52;56313.78;;;-146.93;53.17
21664;BME280;10993;52.510;13.456;2023-05-19T04:04:54;56350.22;;;-146.93;48.85
21664;BME280;10993;52.510;13.456;2023-05-19T04:09:55;56506.13;;;-146.93;46.52
21664;BME280;10993;52.510;13.456;2023-05-19T04:14:55;56508.16;;;-146.93;43.92
21664;BME280;10993;52.510;13.456;2023-05-19T04:19:57;56471.72;;;-146.93;43.62
21664;BME280;10993;52.510;13.456;2023-05-19T04:24:57;56455.50;;;-146.93;43.34
21664;BME280;10993;52.510;13.456;2023-05-19T04:29:58;56487.91;;;-146.93;43.09
21664;BME280;10993;52.510;13.456;2023-05-19T04:34:59;56453.47;;;-146.93;44.47
21664;BME280;10993;52.510;13.456;2023-05-19T04:40:00;56461.59;;;-146.93;45.30
21664;BME280;10993;52.510;13.456;2023-05-19T04:45:00;56467.66;;;-146.93;45.85
21664;BME280;10993;52.510;13.456;2023-05-19T04:50:05;56374.53;;;-146.93;43.77
21664;BME280;10993;52.510;13.456;2023-05-19T04:55:07;56471.72;;;-146.93;43.25
21664;BME280;10993;52.510;13.456;2023-05-19T05:00:08;56516.25;;;-146.93;44.29
21664;BME280;10993;52.510;13.456;2023-05-19T05:05:13;56550.66;;;-146.93;42.20
21664;BME280;10993;52.510;13.456;2023-05-19T05:10:13;56645.81;;;-146.93;41.02
21664;BME280;10993;52.510;13.456;2023-05-19T05:15:14;56643.81;;;-146.93;39.81
21664;BME280;10993;52.510;13.456;2023-05-19T05:20:17;56755.16;;;-146.93;38.51
21664;BME280;10993;52.510;13.456;2023-05-19T05:25:19;56714.66;;;-146.93;39.03
21664;BME280;10993;52.510;13.456;2023-05-19T05:30:20;56550.66;;;-146.93;41.48
21664;BME280;10993;52.510;13.456;2023-05-19T05:35:22;56504.09;;;-146.93;43.89
21664;BME280;10993;52.510;13.456;2023-05-19T05:40:23;56496.00;;;-146.93;45.47
21664;BME280;10993;52.510;13.456;2023-05-19T05:45:24;56589.13;;;-146.93;42.73
21664;BME280;10993;52.510;13.456;2023-05-19T05:50:27;56761.25;;;-146.93;37.79
21664;BME280;10993;52.510;13.456;2023-05-19T05:55:28;56767.31;;;-146.93;38.61
21664;BME280;10993;52.510;13.456;2023-05-19T06:00:28;56787.56;;;-146.93;37.94
21664;BME280;10993;52.510;13.456;2023-05-19T06:05:30;56655.94;;;-146.93;39.52
21664;BME280;10993;52.510;13.456;2023-05-19T06:10:31;56793.63;;;-146.93;37.87
21664;BME280;10993;52.510;13.456;2023-05-19T06:15:31;57168.25;;;-146.93;34.30
21664;BME280;10993;52.510;13.456;2023-05-19T06:20:33;57571.25;;;-146.93;31.87
21664;BME280;10993;52.510;13.456;2023-05-19T06:25:33;58347.03;;;-146.93;28.37
21664;BME280;10993;52.510;13.456;2023-05-19T06:30:34;58235.63;;;-146.93;27.74
21664;BME280;10993;52.510;13.456;2023-05-19T06:35:37;58877.84;;;-146.93;26.57
21664;BME280;10993;52.510;13.456;2023-05-19T06:40:37;58796.78;;;-146.93;26.06
21664;BME280;10993;52.510;13.456;2023-05-19T06:45:37;58326.78;;;-146.93;27.37
21664;BME280;10993;52.510;13.456;2023-05-19T06:50:39;57931.78;;;-146.93;28.96
21664;BME280;10993;52.510;13.456;2023-05-19T06:55:40;58037.13;;;-146.93;28.32
21664;BME280;10993;52.510;13.456;2023-05-19T07:00:40;58168.78;;;-146.93;28.07
21664;BME280;10993;52.510;13.456;2023-05-19T07:05:42;58347.03;;;-146.93;27.28
21664;BME280;10993;52.510;13.456;2023-05-19T07:10:42;58018.88;;;-146.93;28.58
21664;BME280;10993;52.510;13.456;2023-05-19T07:15:42;58853.53;;;-146.93;26.78
21664;BME280;10993;52.510;13.456;2023-05-19T07:20:44;58768.44;;;-146.93;26.59
21664;BME280;10993;52.510;13.456;2023-05-19T07:25:44;58808.94;;;-146.93;26.60
21664;BME280;10993;52.510;13.456;2023-05-19T07:30:45;59826.16;;;-146.93;24.52
21664;BME280;10993;52.510;13.456;2023-05-19T07:35:47;59653.91;;;-146.93;24.59
21664;BME280;10993;52.510;13.456;2023-05-19T07:40:47;59068.28;;;-146.93;25.53
21664;BME280;10993;52.510;13.456;2023-05-19T07:45:48;59331.69;;;-146.93;25.37
21664;BME280;10993;52.510;13.456;2023-05-19T07:50:49;59437.06;;;-146.93;25.03
21664;BME280;10993;52.510;13.456;2023-05-19T07:55:50;59556.63;;;-146.93;24.97
21664;BME280;10993;52.510;13.456;2023-05-19T08:00:50;59058.16;;;-146.93;25.34
21664;BME280;10993;52.510;13.456;2023-05-19T08:05:52;59212.16;;;-146.93;25.03
21664;BME280;10993;52.510;13.456;2023-05-19T08:10:52;59797.78;;;-146.93;24.40
21664;BME280;10993;52.510;13.456;2023-05-19T08:15:52;59058.16;;;-146.93;25.61
21664;BME280;10993;52.510;13.456;2023-05-19T08:21:02;59287.13;;;-146.93;25.18
21664;BME280;10993;52.510;13.456;2023-05-19T08:26:02;60201.13;;;-146.93;23.39
21664;BME280;10993;52.510;13.456;2023-05-19T08:31:03;59335.75;;;-146.93;24.40
21664;BME280;10993;52.510;13.456;2023-05-19T08:36:05;59011.56;;;-146.93;24.95
21664;BME280;10993;52.510;13.456;2023-05-19T08:41:05;58652.94;;;-146.93;26.02
21664;BME280;10993;52.510;13.456;2023-05-19T08:46:06;58817.06;;;-146.93;25.09
21664;BME280;10993;52.510;13.456;2023-05-19T08:51:13;58237.66;;;-146.93;27.35
21664;BME280;10993;52.510;13.456;2023-05-19T08:56:20;58247.78;;;-146.93;26.20
21664;BME280;10993;52.510;13.456;2023-05-19T09:01:21;58259.94;;;-146.93;26.67
21664;BME280;10993;52.510;13.456;2023-05-19T09:06:23;58405.78;;;-146.93;26.15
21664;BME280;10993;52.510;13.456;2023-05-19T09:11:24;58387.56;;;-146.93;25.67
21664;BME280;10993;52.510;13.456;2023-05-19T09:16:25;57990.53;;;-146.93;26.98
21664;BME280;10993;52.510;13.456;2023-05-19T09:21:30;58278.16;;;-146.93;26.18
21664;BME280;10993;52.510;13.456;2023-05-19T09:26:35;59270.91;;;-146.93;26.03
21664;BME280;10993;52.510;13.456;2023-05-19T09:31:36;58334.88;;;-146.93;26.35
21664;BME280;10993;52.510;13.456;2023-05-19T09:36:39;57702.91;;;-146.93;26.99
21664;BME280;10993;52.510;13.456;2023-05-19T09:41:41;58043.19;;;-146.93;27.02
21664;BME280;10993;52.510;13.456;2023-05-19T09:46:48;58148.53;;;-146.93;25.91
21664;BME280;10993;52.510;13.456;2023-05-19T09:51:52;58426.03;;;-146.93;25.76
21664;BME280;10993;52.510;13.456;2023-05-19T09:56:57;58977.09;;;-146.93;24.44
21664;BME280;10993;52.510;13.456;2023-05-19T10:01:58;58148.53;;;-146.93;25.83
21664;BME280;10993;52.510;13.456;2023-05-19T10:07:04;57986.47;;;-146.93;26.35
21664;BME280;10993;52.510;13.456;2023-05-19T10:12:06;57966.22;;;-146.93;26.17
21664;BME280;10993;52.510;13.456;2023-05-19T10:17:08;57818.34;;;-146.93;26.45
21664;BME280;10993;52.510;13.456;2023-05-19T10:22:11;58217.41;;;-146.93;25.95
21664;BME280;10993;52.510;13.456;2023-05-19T10:27:12;58239.69;;;-146.93;25.47
21664;BME280;10993;52.510;13.456;2023-05-19T10:32:16;58154.59;;;-146.93;26.00
21664;BME280;10993;52.510;13.456;2023-05-19T10:37:30;57881.16;;;-146.93;26.82
21664;BME280;10993;52.510;13.456;2023-05-19T10:42:37;57771.78;;;-146.93;26.94
21664;BME280;10993;52.510;13.456;2023-05-19T10:47:40;57546.97;;;-146.93;27.59
21664;BME280;10993;52.510;13.456;2023-05-19T10:52:41;57455.81;;;-146.93;28.27
21664;BME280;10993;52.510;13.456;2023-05-19T10:57:52;57488.22;;;-146.93;28.20
21664;BME280;10993;52.510;13.456;2023-05-19T11:02:53;57717.09;;;-146.93;27.57
21664;BME280;10993;52.510;13.456;2023-05-19T11:08:01;57984.44;;;-146.93;27.27
21664;BME280;10993;52.510;13.456;2023-05-19T11:13:05;57674.56;;;-146.93;26.68
21664;BME280;10993;52.510;13.456;2023-05-19T11:18:05;57644.19;;;-146.93;27.24
21664;BME280;10993;52.510;13.456;2023-05-19T11:23:08;57792.03;;;-146.93;26.77
21664;BME280;10993;52.510;13.456;2023-05-19T11:28:10;57800.13;;;-146.93;26.51
21664;BME280;10993;52.510;13.456;2023-05-19T11:33:13;57911.53;;;-146.93;26.39
21664;BME280;10993;52.510;13.456;2023-05-19T11:38:15;57674.56;;;-146.93;27.43
21664;BME280;10993;52.510;13.456;2023-05-19T11:43:18;57619.88;;;-146.93;27.69
21664;BME280;10993;52.510;13.456;2023-05-19T11:48:21;57820.38;;;-146.93;27.01
21664;BME280;10993;52.510;13.456;2023-05-19T11:53:23;57733.28;;;-146.93;27.33
21664;BME280;10993;52.510;13.456;2023-05-19T11:58:24;57504.44;;;-146.93;28.36
21664;BME280;10993;52.510;13.456;2023-05-19T12:03:25;57538.84;;;-146.93;27.99
21664;BME280;10993;52.510;13.456;2023-05-19T12:08:29;57478.09;;;-146.93;27.87
21664;BME280;10993;52.510;13.456;2023-05-19T12:13:29;57520.63;;;-146.93;27.68
21664;BME280;10993;52.510;13.456;2023-05-19T12:18:30;57567.22;;;-146.93;27.48
21664;BME280;10993;52.510;13.456;2023-05-19T12:23:40;57557.09;;;-146.93;27.74
21664;BME280;10993;52.510;13.456;2023-05-19T12:28:43;57575.31;;;-146.93;28.14
21664;BME280;10993;52.510;13.456;2023-05-19T12:33:44;57551.00;;;-146.93;28.08
21664;BME280;10993;52.510;13.456;2023-05-19T12:38:46;57427.47;;;-146.93;28.51
21664;BME280;10993;52.510;13.456;2023-05-19T12:43:47;57301.91;;;-146.93;29.30
21664;BME280;10993;52.510;13.456;2023-05-19T12:48:47;57354.56;;;-146.93;29.74
21664;BME280;10993;52.510;13.456;2023-05-19T12:53:50;57348.50;;;-146.93;29.84
21664;BME280;10993;52.510;13.456;2023-05-19T12:58:52;57305.97;;;-146.93;30.20
21664;BME280;10993;52.510;13.456;2023-05-19T13:03:53;57314.06;;;-146.93;29.34
21664;BME280;10993;52.510;13.456;2023-05-19T13:08:55;57447.72;;;-146.93;28.92
21664;BME280;10993;52.510;13.456;2023-05-19T13:13:56;57314.06;;;-146.93;29.57
21664;BME280;10993;52.510;13.456;2023-05-19T13:18:56;57395.06;;;-146.93;29.39
21664;BME280;10993;52.510;13.456;2023-05-19T13:23:58;57409.25;;;-146.93;29.15
21664;BME280;10993;52.510;13.456;2023-05-19T13:28:58;57391.00;;;-146.93;29.17
21664;BME280;10993;52.510;13.456;2023-05-19T13:33:59;57476.06;;;-146.93;29.39
21664;BME280;10993;52.510;13.456;2023-05-19T13:39:00;57297.84;;;-146.93;29.83
21664;BME280;10993;52.510;13.456;2023-05-19T13:44:01;57330.25;;;-146.93;29.93
21664;BME280;10993;52.510;13.456;2023-05-19T13:49:01;57340.38;;;-146.93;29.80
21664;BME280;10993;52.510;13.456;2023-05-19T13:54:03;57330.25;;;-146.93;30.13
21664;BME280;10993;52.510;13.456;2023-05-19T13:59:04;57277.59;;;-146.93;30.40
21664;BME280;10993;52.510;13.456;2023-05-19T14:04:04;57289.75;;;-146.93;29.81
21664;BME280;10993;52.510;13.456;2023-05-19T14:09:06;57273.56;;;-146.93;30.93
21664;BME280;10993;52.510;13.456;2023-05-19T14:14:06;57293.81;;;-146.93;30.79
21664;BME280;10993;52.510;13.456;2023-05-19T14:19:07;57273.56;;;-146.93;30.27
21664;BME280;10993;52.510;13.456;2023-05-19T14:24:08;57186.47;;;-146.93;30.23
21664;BME280;10993;52.510;13.456;2023-05-19T14:29:09;57374.81;;;-146.93;29.96
21664;BME280;10993;52.510;13.456;2023-05-19T14:34:09;57263.44;;;-146.93;31.10
21664;BME280;10993;52.510;13.456;2023-05-19T14:39:11;57307.97;;;-146.93;30.77
21664;BME280;10993;52.510;13.456;2023-05-19T14:44:11;57279.63;;;-146.93;31.04
21664;BME280;10993;52.510;13.456;2023-05-19T14:49:12;57293.81;;;-146.93;31.14
21664;BME280;10993;52.510;13.456;2023-05-19T14:54:13;57281.66;;;-146.93;30.62
21664;BME280;10993;52.510;13.456;2023-05-19T14:59:14;57145.97;;;-146.93;31.39
21664;BME280;10993;52.510;13.456;2023-05-19T15:04:14;57168.25;;;-146.93;31.45
21664;BME280;10993;52.510;13.456;2023-05-19T15:09:16;57188.50;;;-146.93;31.79
21664;BME280;10993;52.510;13.456;2023-05-19T15:14:16;57229.00;;;-146.93;31.12
21664;BME280;10993;52.510;13.456;2023-05-19T15:19:16;57204.69;;;-146.93;30.95
21664;BME280;10993;52.510;13.456;2023-05-19T15:24:18;57168.25;;;-146.93;31.69
21664;BME280;10993;52.510;13.456;2023-05-19T15:29:19;57079.16;;;-146.93;32.18
21664;BME280;10993;52.510;13.456;2023-05-19T15:34:19;57058.91;;;-146.93;31.88
21664;BME280;10993;52.510;13.456;2023-05-19T15:39:21;57210.78;;;-146.93;31.52
21664;BME280;10993;52.510;13.456;2023-05-19T15:44:21;57190.53;;;-146.93;31.14
21664;BME280;10993;52.510;13.456;2023-05-19T15:49:21;57091.31;;;-146.93;32.21
21664;BME280;10993;52.510;13.456;2023-05-19T15:54:25;57093.31;;;-146.93;32.15
21664;BME280;10993;52.510;13.456;2023-05-19T15:59:25;57034.59;;;-146.93;32.24
21664;BME280;10993;52.510;13.456;2023-05-19T16:04:26;57111.56;;;-146.93;32.05
21664;BME280;10993;52.510;13.456;2023-05-19T16:09:27;57046.75;;;-146.93;32.36
21664;BME280;10993;52.510;13.456;2023-05-19T16:14:28;57036.63;;;-146.93;31.87
21664;BME280;10993;52.510;13.456;2023-05-19T16:19:32;57079.16;;;-146.93;31.51
21664;BME280;10993;52.510;13.456;2023-05-19T16:24:33;57081.19;;;-146.93;31.30
21664;BME280;10993;52.510;13.456;2023-05-19T16:29:34;57030.56;;;-146.93;31.92
21664;BME280;10993;52.510;13.456;2023-05-19T16:34:34;57010.31;;;-146.93;32.67
21664;BME280;10993;52.510;13.456;2023-05-19T16:39:36;56977.91;;;-146.93;32.43
21664;BME280;10993;52.510;13.456;2023-05-19T16:44:36;56953.59;;;-146.93;32.43
21664;BME280;10993;52.510;13.456;2023-05-19T16:49:36;57000.19;;;-146.93;32.34
21664;BME280;10993;52.510;13.456;2023-05-19T16:54:41;57006.25;;;-146.93;32.54
21664;BME280;10993;52.510;13.456;2023-05-19T16:59:41;56981.94;;;-146.93;32.72
21664;BME280;10993;52.510;13.456;2023-05-19T17:04:41;57058.91;;;-146.93;32.49
21664;BME280;10993;52.510;13.456;2023-05-19T17:09:43;57046.75;;;-146.93;32.80
21664;BME280;10993;52.510;13.456;2023-05-19T17:14:43;56973.84;;;-146.93;33.17
21664;BME280;10993;52.510;13.456;2023-05-19T17:19:44;56953.59;;;-146.93;33.15
21664;BME280;10993;52.510;13.456;2023-05-19T17:24:46;56953.59;;;-146.93;33.60
21664;BME280;10993;52.510;13.456;2023-05-19T17:29:46;56953.59;;;-146.93;33.79
21664;BME280;10993;52.510;13.456;2023-05-19T17:34:47;57004.22;;;-146.93;33.76
21664;BME280;10993;52.510;13.456;2023-05-19T17:39:48;56898.94;;;-146.93;34.05
21664;BME280;10993;52.510;13.456;2023-05-19T17:44:49;56909.06;;;-146.93;34.03
21664;BME280;10993;52.510;13.456;2023-05-19T17:49:49;56937.41;;;-146.93;33.84
21664;BME280;10993;52.510;13.456;2023-05-19T17:54:53;56909.06;;;-146.93;34.16
21664;BME280;10993;52.510;13.456;2023-05-19T17:59:54;56925.25;;;-146.93;34.15
21664;BME280;10993;52.510;13.456;2023-05-19T18:04:55;56925.25;;;-146.93;33.97
21664;BME280;10993;52.510;13.456;2023-05-19T18:09:58;56874.63;;;-146.93;34.12
21664;BME280;10993;52.510;13.456;2023-05-19T18:14:59;56992.06;;;-146.93;33.49
21664;BME280;10993;52.510;13.456;2023-05-19T18:19:59;57354.56;;;-146.93;31.46
21664;BME280;10993;52.510;13.456;2023-05-19T18:25:01;57192.56;;;-146.93;34.87
21664;BME280;10993;52.510;13.456;2023-05-19T18:30:02;57176.34;;;-146.93;32.95
21664;BME280;10993;52.510;13.456;2023-05-19T18:35:03;57125.72;;;-146.93;33.96
21664;BME280;10993;52.510;13.456;2023-05-19T18:40:06;57044.72;;;-146.93;34.86
21664;BME280;10993;52.510;13.456;2023-05-19T18:45:07;56953.59;;;-146.93;34.74
21664;BME280;10993;52.510;13.456;2023-05-19T18:50:08;56892.84;;;-146.93;35.34
21664;BME280;10993;52.510;13.456;2023-05-19T18:55:10;56734.91;;;-146.93;36.55
21664;BME280;10993;52.510;13.456;2023-05-19T19:00:12;56807.81;;;-146.93;37.68
21664;BME280;10993;52.510;13.456;2023-05-19T19:05:12;56767.31;;;-146.93;38.59
21664;BME280;10993;52.510;13.456;2023-05-19T19:10:14;56728.84;;;-146.93;38.95
21664;BME280;10993;52.510;13.456;2023-05-19T19:15:14;56811.88;;;-146.93;39.78
21664;BME280;10993;52.510;13.456;2023-05-19T19:20:15;56813.88;;;-146.93;37.74
21664;BME280;10993;52.510;13.456;2023-05-19T19:25:17;56775.41;;;-146.93;38.93
21664;BME280;10993;52.510;13.456;2023-05-19T19:30:17;56779.47;;;-146.93;39.46
21664;BME280;10993;52.510;13.456;2023-05-19T19:35:18;56704.53;;;-146.93;40.24
21664;BME280;10993;52.510;13.456;2023-05-19T19:40:19;56637.72;;;-146.93;40.98
21664;BME280;10993;52.510;13.456;2023-05-19T19:45:20;56694.41;;;-146.93;41.48
21664;BME280;10993;52.510;13.456;2023-05-19T19:50:20;56621.53;;;-146.93;42.09
21664;BME280;10993;52.510;13.456;2023-05-19T19:55:22;56664.06;;;-146.93;42.39
21664;BME280;10993;52.510;13.456;2023-05-19T20:00:23;56649.88;;;-146.93;42.88
21664;BME280;10993;52.510;13.456;2023-05-19T20:05:23;56684.31;;;-146.93;43.08
21664;BME280;10993;52.510;13.456;2023-05-19T20:10:25;56653.94;;;-146.93;43.49
21664;BME280;10993;52.510;13.456;2023-05-19T20:15:27;56670.13;;;-146.93;43.83
21664;BME280;10993;52.510;13.456;2023-05-19T20:20:28;56670.13;;;-146.93;44.00
21664;BME280;10993;52.510;13.456;2023-05-19T20:25:29;56653.94;;;-146.93;44.48
21664;BME280;10993;52.510;13.456;2023-05-19T20:30:30;56473.72;;;-146.93;45.11
21664;BME280;10993;52.510;13.456;2023-05-19T20:35:30;56672.16;;;-146.93;45.14
21664;BME280;10993;52.510;13.456;2023-05-19T20:40:32;56674.19;;;-146.93;45.70
21664;BME280;10993;52.510;13.456;2023-05-19T20:45:32;56615.47;;;-146.93;46.33
21664;BME280;10993;52.510;13.456;2023-05-19T20:50:33;56540.53;;;-146.93;46.32
21664;BME280;10993;52.510;13.456;2023-05-19T20:55:34;56621.53;;;-146.93;47.01
21664;BME280;10993;52.510;13.456;2023-05-19T21:00:38;56585.09;;;-146.93;47.74
21664;BME280;10993;52.510;13.456;2023-05-19T21:05:38;56621.53;;;-146.93;48.04
21664;BME280;10993;52.510;13.456;2023-05-19T21:10:40;56552.69;;;-146.93;48.58
21664;BME280;10993;52.510;13.456;2023-05-19T21:15:40;56609.38;;;-146.93;49.03
21664;BME280;10993;52.510;13.456;2023-05-19T21:20:41;56510.19;;;-146.93;49.64
21664;BME280;10993;52.510;13.456;2023-05-19T21:25:42;56518.28;;;-146.93;50.22
21664;BME280;10993;52.510;13.456;2023-05-19T21:30:46;56595.22;;;-146.93;50.46
21664;BME280;10993;52.510;13.456;2023-05-19T21:35:46;56550.66;;;-146.93;51.07
21664;BME280;10993;52.510;13.456;2023-05-19T21:40:48;56775.41;;;-146.93;51.24
21664;BME280;10993;52.510;13.456;2023-05-19T21:45:49;56560.78;;;-146.93;51.50
21664;BME280;10993;52.510;13.456;2023-05-19T21:50:53;56498.03;;;-146.93;52.29
21664;BME280;10993;52.510;13.456;2023-05-19T21:55:55;56595.22;;;-146.93;52.36
21664;BME280;10993;52.510;13.456;2023-05-19T22:00:55;56568.88;;;-146.93;52.51
21664;BME280;10993;52.510;13.456;2023-05-19T22:05:59;56526.38;;;-146.93;52.97
21664;BME280;10993;52.510;13.456;2023-05-19T22:11:02;56548.66;;;-146.93;53.26
21664;BME280;10993;52.510;13.456;2023-05-19T22:16:02;56516.25;;;-146.93;54.36
21664;BME280;10993;52.510;13.456;2023-05-19T22:21:03;56520.28;;;-146.93;54.53
21664;BME280;10993;52.510;13.456;2023-05-19T22:26:05;56498.03;;;-146.93;54.96
21664;BME280;10993;52.510;13.456;2023-05-19T22:31:06;56520.28;;;-146.93;55.24
21664;BME280;10993;52.510;13.456;2023-05-19T22:36:06;56520.28;;;-146.93;55.86
21664;BME280;10993;52.510;13.456;2023-05-19T22:41:08;56491.94;;;-146.93;56.12
21664;BME280;10993;52.510;13.456;2023-05-19T22:46:09;56528.41;;;-146.93;56.39
21664;BME280;10993;52.510;13.456;2023-05-19T22:51:09;56518.28;;;-146.93;56.50
21664;BME280;10993;52.510;13.456;2023-05-19T22:56:11;56483.84;;;-146.93;56.97
21664;BME280;10993;52.510;13.456;2023-05-19T23:01:11;56506.13;;;-146.93;56.58
21664;BME280;10993;52.510;13.456;2023-05-19T23:06:11;56512.19;;;-146.93;57.48
21664;BME280;10993;52.510;13.456;2023-05-19T23:11:13;56526.38;;;-146.93;58.24
21664;BME280;10993;52.510;13.456;2023-05-19T23:16:16;56500.06;;;-146.93;58.62
21664;BME280;10993;52.510;13.456;2023-05-19T23:21:17;56473.72;;;-146.93;59.13
21664;BME280;10993;52.510;13.456;2023-05-19T23:26:18;56481.84;;;-146.93;59.49
21664;BME280;10993;52.510;13.456;2023-05-19T23:31:20;56498.03;;;-146.93;60.53
21664;BME280;10993;52.510;13.456;2023-05-19T23:36:20;56463.59;;;-146.93;61.17
21664;BME280;10993;52.510;13.456;2023-05-19T23:41:23;56455.50;;;-146.93;61.98
21664;BME280;10993;52.510;13.456;2023-05-19T23:46:23;56439.31;;;-146.93;62.24
21664;BME280;10993;52.510;13.456;2023-05-19T23:51:24;57133.81;;;-146.93;63.07
21664;BME280;10993;52.510;13.456;2023-05-19T23:56:25;56463.59;;;-146.93;63.86
